Terminal Aerodrome Forecast
Issued by NWS Jackson, KY

Home | Current Version | Previous Version | Text Only | Print | Product List | Glossary On
Versions: 1 2 3 4 5 6 7 8 9 10 11 12 13 14 15 16 17 18 19 20
000
FTUS43 KJKL 120539
TAFLOZ
TAF
KLOZ 120539Z 1206/1306 04009KT P6SM BKN070
     FM120700 04009KT P6SM VCSH OVC070
     FM120900 03008KT P6SM BKN060
     FM121500 06010KT P6SM FEW050 SCT070
     FM130000 03006KT P6SM FEW250=

USA.gov is the U.S. government's official web portal to all federal, state and local government web resources and services.